Time;durP1;ratioP1;P1;durP2;ratioP2;P2;SDS_P1;SDS_P2;PMS_P1;PMS_P2;Temp;Humidity;BMP_temperature;BMP_pressure;BME280_temperature;BME280_humidity;BME280_pressure;Samples;Min_cycle;Max_cycle;Signal;HPM_P1;HPM_P2
2022/08/30 00:02:19;;;;;;;1.80;1.52;;;;;;;16.78;90.89;101365.75;5020622;28;20153;-64
2022/08/30 00:04:47;;;;;;;2.22;1.70;;;;;;;16.74;91.74;101376.75;5019703;28;20061;-64
2022/08/30 00:07:14;;;;;;;2.85;1.90;;;;;;;16.67;92.16;101366.53;5020743;28;20050;-64
2022/08/30 00:09:41;;;;;;;1.90;1.38;;;;;;;16.69;91.50;101369.06;5020107;28;20045;-64
2022/08/30 00:12:09;;;;;;;2.13;1.38;;;;;;;16.71;90.53;101370.66;5024768;28;20152;-64
2022/08/30 00:14:36;;;;;;;3.83;1.90;;;;;;;16.72;90.62;101376.88;5019072;28;20547;-64
2022/08/30 00:17:04;;;;;;;2.85;2.20;;;;;;;16.70;91.25;101371.59;5019205;28;20057;-64
2022/08/30 00:19:31;;;;;;;1.98;1.50;;;;;;;16.70;91.15;101373.41;5019168;28;20159;-64
2022/08/30 00:21:58;;;;;;;2.75;1.70;;;;;;;16.69;91.30;101374.38;5021213;28;20561;-64
2022/08/30 00:24:26;;;;;;;2.00;1.80;;;;;;;16.68;90.97;101370.03;5021898;28;20140;-64
2022/08/30 00:26:53;;;;;;;2.13;1.80;;;;;;;16.67;91.20;101371.00;5018818;28;20053;-64
2022/08/30 00:29:20;;;;;;;2.40;1.73;;;;;;;16.66;91.11;101371.94;5017208;28;20049;-65
2022/08/30 00:31:47;;;;;;;2.13;1.67;;;;;;;16.70;90.54;101376.06;4995261;28;20056;-65
2022/08/30 00:34:15;;;;;;;2.58;1.85;;;;;;;16.73;89.89;101383.88;5018435;28;20535;-65
2022/08/30 00:36:45;;;;;;;2.30;2.10;;;;;;;16.75;89.59;101387.28;5021688;28;20080;-64
2022/08/30 00:39:12;;;;;;;1.90;1.23;;;;;;;16.70;90.44;101379.56;5018072;28;20041;-65
2022/08/30 00:41:39;;;;;;;2.47;2.20;;;;;;;16.65;90.66;101376.41;5005308;28;20217;-64
2022/08/30 00:44:07;;;;;;;3.05;2.15;;;;;;;16.60;92.91;101375.06;5019310;28;20411;-65
2022/08/30 00:46:34;;;;;;;4.05;2.28;;;;;;;16.54;93.18;101371.03;5024358;28;20054;-64
2022/08/30 00:49:03;;;;;;;2.25;1.80;;;;;;;16.47;94.18;101372.41;5016913;28;20046;-64
2022/08/30 00:51:30;;;;;;;2.13;1.50;;;;;;;16.45;94.15;101363.72;5007674;28;20050;-64
2022/08/30 00:53:58;;;;;;;2.50;1.77;;;;;;;16.48;93.20;101371.50;5017278;28;20713;-64
2022/08/30 00:56:25;;;;;;;4.60;2.00;;;;;;;16.58;92.56;101372.50;5018410;28;20430;-64
2022/08/30 00:58:54;;;;;;;4.82;2.72;;;;;;;16.63;91.74;101378.34;5018186;28;20046;-63
2022/08/30 01:01:22;;;;;;;2.88;2.33;;;;;;;16.57;92.47;101383.25;5018349;28;20053;-64
2022/08/30 01:03:49;;;;;;;2.85;2.10;;;;;;;16.46;95.11;101384.03;5017297;28;20496;-63
2022/08/30 01:06:16;;;;;;;2.85;2.25;;;;;;;16.37;95.79;101390.00;5002851;28;20141;-62
2022/08/30 01:08:45;;;;;;;3.83;2.63;;;;;;;16.31;96.31;101385.97;5017392;28;20054;-64
2022/08/30 01:11:15;;;;;;;4.65;3.17;;;;;;;16.26;98.18;101385.44;4993777;23;20093;-63
2022/08/30 01:13:42;;;;;;;3.45;2.88;;;;;;;16.25;97.48;101390.84;4963314;28;20062;-64
2022/08/30 01:16:10;;;;;;;3.30;2.47;;;;;;;16.25;96.61;101390.84;4969517;28;20057;-64
2022/08/30 01:18:38;;;;;;;3.17;2.47;;;;;;;16.30;95.10;101394.91;4984429;28;20062;-65
2022/08/30 01:21:34;;;;;;;3.38;3.00;;;;;;;16.34;94.83;101392.84;4987231;28;20055;-63
2022/08/30 01:24:02;;;;;;;4.05;2.70;;;;;;;16.36;94.52;101393.63;4982117;28;20125;-64
2022/08/30 01:26:29;;;;;;;3.05;2.75;;;;;;;16.39;93.56;101385.41;4965107;28;20077;-63
2022/08/30 01:29:02;;;;;;;6.40;2.63;;;;;;;16.36;93.82;101385.66;4981146;28;20042;-64
2022/08/30 01:31:29;;;;;;;4.75;2.22;;;;;;;16.34;93.16;101385.72;4970750;28;20050;-64
2022/08/30 01:33:56;;;;;;;3.67;2.30;;;;;;;16.39;93.48;101386.28;4981334;28;20065;-64
2022/08/30 01:36:24;;;;;;;2.90;2.38;;;;;;;16.33;94.25;101385.84;4982323;28;20066;-65
2022/08/30 01:38:54;;;;;;;4.10;2.90;;;;;;;16.32;93.40;101387.66;4985266;28;20084;-65
2022/08/30 01:41:28;;;;;;;2.53;2.15;;;;;;;16.30;93.64;101392.25;4967469;28;20051;-64
2022/08/30 01:43:58;;;;;;;2.72;2.38;;;;;;;16.30;92.90;101389.59;4983404;28;20089;-65
2022/08/30 01:46:30;;;;;;;3.65;2.70;;;;;;;16.34;92.61;101388.38;4966595;28;20073;-65
2022/08/30 01:48:57;;;;;;;5.18;3.78;;;;;;;16.26;94.18;101387.25;4980529;28;20043;-65
2022/08/30 01:51:26;;;;;;;3.40;3.03;;;;;;;16.16;95.27;101393.19;4993188;28;20455;-65
2022/08/30 01:53:54;;;;;;;3.15;2.72;;;;;;;16.13;95.33;101385.47;4975491;28;20058;-65
2022/08/30 01:56:23;;;;;;;5.05;3.22;;;;;;;16.13;95.55;101382.81;4981893;28;20066;-63
2022/08/30 01:58:50;;;;;;;3.67;2.78;;;;;;;16.10;95.92;101383.00;4979015;28;20421;-64
2022/08/30 02:01:21;;;;;;;4.18;3.47;;;;;;;16.14;94.91;101383.66;4985932;28;20054;-63
2022/08/30 02:03:48;;;;;;;3.63;2.63;;;;;;;16.14;95.12;101381.00;4989084;28;20058;-63
2022/08/30 02:06:18;;;;;;;3.25;2.55;;;;;;;16.18;94.51;101378.00;4983661;28;20050;-63
2022/08/30 02:08:46;;;;;;;3.03;2.72;;;;;;;16.24;93.54;101376.72;4979379;28;20054;-63
2022/08/30 02:11:14;;;;;;;2.65;2.40;;;;;;;16.29;92.91;101376.41;4983608;28;20051;-63
2022/08/30 02:13:43;;;;;;;4.30;3.33;;;;;;;16.28;92.95;101377.34;4982373;28;20061;-63
2022/08/30 02:16:13;;;;;;;3.72;2.97;;;;;;;16.23;92.86;101374.19;4985884;28;20061;-63
2022/08/30 02:18:40;;;;;;;3.47;2.90;;;;;;;16.13;94.58;101376.66;4981588;28;20050;-64
2022/08/30 02:21:07;;;;;;;5.40;3.83;;;;;;;16.02;97.56;101379.19;4981574;28;20055;-63
2022/08/30 02:23:35;;;;;;;3.50;2.58;;;;;;;15.89;98.01;101377.38;4981899;28;20054;-63
2022/08/30 02:26:03;;;;;;;3.15;2.85;;;;;;;15.85;99.98;101380.34;4984397;28;20485;-64
2022/08/30 02:28:30;;;;;;;3.55;2.92;;;;;;;15.82;99.14;101385.88;4963032;28;20034;-64
2022/08/30 02:30:58;;;;;;;5.00;3.22;;;;;;;15.82;97.89;101373.47;4985076;28;20053;-64
2022/08/30 02:33:26;;;;;;;3.95;3.15;;;;;;;15.88;97.38;101372.19;4983415;28;20070;-64
2022/08/30 02:35:54;;;;;;;5.30;3.10;;;;;;;15.92;96.87;101373.66;4950605;28;20680;-64
2022/08/30 02:38:22;;;;;;;4.95;3.35;;;;;;;15.88;97.34;101366.88;4978824;28;20050;-64
2022/08/30 02:40:50;;;;;;;5.43;3.22;;;;;;;15.89;96.36;101371.22;4981876;28;20458;-64
2022/08/30 02:43:17;;;;;;;3.45;3.15;;;;;;;15.91;96.16;101370.16;4981003;28;20480;-64
2022/08/30 02:45:44;;;;;;;5.28;3.10;;;;;;;15.89;96.21;101371.22;4981826;28;20065;-64
2022/08/30 02:48:12;;;;;;;3.42;3.00;;;;;;;15.84;95.78;101371.53;4962894;28;20263;-64
2022/08/30 02:50:41;;;;;;;6.57;3.45;;;;;;;15.90;94.92;101375.59;4981406;28;20050;-64
2022/08/30 02:53:09;;;;;;;4.47;2.53;;;;;;;15.93;94.47;101380.69;4979774;28;20054;-64
2022/08/30 02:55:40;;;;;;;3.20;2.70;;;;;;;15.94;94.14;101377.09;4980060;28;20054;-65
2022/08/30 02:58:09;;;;;;;10.45;3.78;;;;;;;15.90;94.42;101373.78;4982756;28;20054;-65
2022/08/30 03:00:37;;;;;;;3.95;3.17;;;;;;;15.89;93.95;101372.06;4986253;28;20153;-63
2022/08/30 03:03:06;;;;;;;7.25;4.07;;;;;;;15.84;95.98;101373.34;4981449;28;20566;-64
2022/08/30 03:05:33;;;;;;;4.53;3.90;;;;;;;15.73;96.97;101362.63;4969590;28;20050;-63
2022/08/30 03:08:03;;;;;;;4.63;4.03;;;;;;;15.67;97.66;101367.41;4982429;28;20054;-64
2022/08/30 03:10:31;;;;;;;7.47;4.95;;;;;;;15.69;97.26;101367.28;4983899;28;20068;-64
2022/08/30 03:12:58;;;;;;;4.72;4.32;;;;;;;15.65;99.01;101373.75;4982625;28;20046;-64
2022/08/30 03:15:25;;;;;;;4.20;3.75;;;;;;;15.59;98.84;101374.16;4986699;28;20054;-64
2022/08/30 03:17:53;;;;;;;4.72;4.32;;;;;;;15.59;98.28;101372.34;4981133;28;20081;-63
2022/08/30 03:20:23;;;;;;;5.22;4.10;;;;;;;15.61;97.50;101370.44;4983799;28;20077;-65
2022/08/30 03:22:51;;;;;;;5.45;4.38;;;;;;;15.62;97.50;101364.16;4984914;28;20065;-64
2022/08/30 03:25:22;;;;;;;5.03;4.53;;;;;;;15.63;97.95;101375.66;4987034;28;20046;-65
2022/08/30 03:27:49;;;;;;;4.78;4.25;;;;;;;15.55;100.00;101368.19;4981092;28;20072;-64
2022/08/30 03:30:18;;;;;;;5.32;4.78;;;;;;;15.50;100.00;101370.31;4979193;28;20039;-65
2022/08/30 03:32:46;;;;;;;6.47;4.78;;;;;;;15.48;100.00;101380.19;4983403;28;21599;-63
2022/08/30 03:35:13;;;;;;;5.25;4.05;;;;;;;15.51;99.42;101372.03;4964441;28;20133;-65
2022/08/30 03:37:41;;;;;;;6.63;4.53;;;;;;;15.58;98.98;101381.28;4983575;28;20142;-64
2022/08/30 03:40:10;;;;;;;3.60;3.22;;;;;;;15.56;98.61;101379.66;4987048;28;20038;-64
2022/08/30 03:42:37;;;;;;;5.47;4.00;;;;;;;15.59;97.70;101380.31;4983463;28;20062;-64
2022/08/30 03:45:06;;;;;;;3.58;3.15;;;;;;;15.59;97.77;101379.47;4982977;28;20054;-64
2022/08/30 03:47:33;;;;;;;5.70;3.63;;;;;;;15.61;97.48;101386.34;4984015;28;20425;-62
2022/08/30 03:50:01;;;;;;;6.22;4.13;;;;;;;15.59;97.55;101380.31;4978510;28;20058;-64
2022/08/30 03:52:28;;;;;;;4.97;4.50;;;;;;;15.57;97.37;101387.50;4979242;28;20054;-64
2022/08/30 03:54:55;;;;;;;4.03;3.63;;;;;;;15.54;97.70;101392.19;4979177;28;20169;-65
2022/08/30 03:57:22;;;;;;;5.75;3.75;;;;;;;15.55;97.73;101394.75;4983226;28;20397;-63
2022/08/30 03:59:50;;;;;;;11.15;5.25;;;;;;;15.52;99.68;101389.63;4990525;28;20369;-63
2022/08/30 04:02:18;;;;;;;7.15;5.30;;;;;;;15.44;100.00;101392.81;4994032;28;20046;-64
2022/08/30 04:04:46;;;;;;;7.60;5.35;;;;;;;15.39;100.00;101386.09;4991838;28;20092;-65
2022/08/30 04:07:13;;;;;;;4.70;4.30;;;;;;;15.40;100.00;101390.44;4995937;28;20050;-63
2022/08/30 04:09:40;;;;;;;5.63;5.13;;;;;;;15.42;100.00;101393.88;4979288;28;20054;-64
2022/08/30 04:12:08;;;;;;;6.68;4.18;;;;;;;15.38;100.00;101395.03;4979091;28;20536;-63
2022/08/30 04:14:35;;;;;;;6.28;3.92;;;;;;;15.41;99.57;101398.31;4979042;28;20050;-64
2022/08/30 04:17:02;;;;;;;4.28;3.88;;;;;;;15.44;99.24;101403.44;4978687;28;20059;-63
2022/08/30 04:19:29;;;;;;;4.88;3.97;;;;;;;15.45;98.70;101398.97;4979042;28;20042;-63
2022/08/30 04:21:56;;;;;;;5.15;3.72;;;;;;;15.44;98.35;101405.22;4981957;28;20058;-64
2022/08/30 04:24:24;;;;;;;3.75;3.35;;;;;;;15.43;98.46;101409.66;4975387;28;20059;-63
2022/08/30 04:26:51;;;;;;;6.32;4.68;;;;;;;15.45;98.37;101409.59;4981240;28;20381;-64
2022/08/30 04:29:18;;;;;;;3.95;3.50;;;;;;;15.37;99.42;101404.78;4977954;28;20055;-64
2022/08/30 04:31:46;;;;;;;4.43;3.67;;;;;;;15.39;98.96;101405.53;4980510;28;20054;-64
2022/08/30 04:34:13;;;;;;;6.78;3.63;;;;;;;15.43;98.18;101408.81;4979557;28;20065;-64
2022/08/30 04:36:40;;;;;;;5.63;4.03;;;;;;;15.42;97.76;101407.13;4963905;28;20535;-64
2022/08/30 04:39:15;;;;;;;4.35;3.40;;;;;;;15.47;97.84;101407.66;4979692;28;20459;-64
2022/08/30 04:41:42;;;;;;;6.22;4.07;;;;;;;15.45;97.67;101415.75;4978765;28;20061;-63
2022/08/30 04:44:09;;;;;;;5.18;4.35;;;;;;;15.48;97.59;101417.31;4981703;28;20057;-65
2022/08/30 04:46:45;;;;;;;4.13;3.33;;;;;;;15.49;97.42;101410.22;4979817;28;20489;-62
2022/08/30 04:49:13;;;;;;;5.45;4.45;;;;;;;15.53;97.55;101424.97;4976546;28;20062;-63
2022/08/30 04:51:40;;;;;;;7.40;5.13;;;;;;;15.58;97.64;101423.75;4982555;28;20416;-63
2022/08/30 04:54:07;;;;;;;5.05;4.10;;;;;;;15.55;98.20;101423.09;4980532;28;20066;-63
2022/08/30 04:56:35;;;;;;;8.23;4.90;;;;;;;15.54;98.01;101422.25;4981466;28;20386;-65
2022/08/30 04:59:03;;;;;;;5.38;4.40;;;;;;;15.53;98.56;101424.97;4979927;28;20046;-64
2022/08/30 05:01:31;;;;;;;6.10;4.93;;;;;;;15.54;99.39;101421.41;4985086;28;20062;-64
2022/08/30 05:04:11;;;;;;;4.90;4.40;;;;;;;15.56;98.81;101416.81;4985816;28;20060;-63
2022/08/30 05:06:38;;;;;;;5.93;5.32;;;;;;;15.58;98.56;101418.44;4988293;28;20419;-63
2022/08/30 05:09:05;;;;;;;6.35;5.75;;;;;;;15.54;100.00;101424.06;4987483;28;20064;-64
2022/08/30 05:11:32;;;;;;;6.90;4.47;;;;;;;15.52;100.00;101428.59;4969978;28;20053;-65
2022/08/30 05:13:59;;;;;;;6.25;5.20;;;;;;;15.54;100.00;101429.34;4986649;28;20050;-63
2022/08/30 05:16:27;;;;;;;5.35;4.80;;;;;;;15.53;100.00;101425.81;4974684;28;20058;-64
2022/08/30 05:18:55;;;;;;;7.65;6.38;;;;;;;15.55;100.00;101425.75;4982676;28;20065;-63
2022/08/30 05:21:25;;;;;;;7.28;6.18;;;;;;;15.46;100.00;101429.84;4985033;28;20077;-64
2022/08/30 05:23:56;;;;;;;6.28;5.68;;;;;;;15.43;100.00;101438.84;4985956;28;20532;-64
2022/08/30 05:26:29;;;;;;;7.95;7.05;;;;;;;15.47;100.00;101436.84;4990804;28;20088;-65
2022/08/30 05:28:57;;;;;;;7.35;6.53;;;;;;;15.45;100.00;101444.94;4993533;28;20057;-64
2022/08/30 05:31:27;;;;;;;6.15;5.55;;;;;;;15.48;100.00;101446.50;4986705;28;20109;-63
2022/08/30 05:33:55;;;;;;;7.47;5.38;;;;;;;15.54;100.00;101445.28;4992249;28;20049;-64
2022/08/30 05:36:25;;;;;;;6.45;5.20;;;;;;;15.61;100.00;101441.25;5001209;28;20047;-65
2022/08/30 05:38:53;;;;;;;8.18;5.20;;;;;;;15.68;100.00;101438.13;4985197;28;20682;-64
2022/08/30 05:41:22;;;;;;;6.82;5.90;;;;;;;15.75;100.00;101449.16;4988776;28;20698;-64
2022/08/30 05:43:54;;;;;;;9.68;6.38;;;;;;;15.79;100.00;101444.50;4998056;28;20074;-64
2022/08/30 05:46:22;;;;;;;7.18;6.03;;;;;;;15.79;100.00;101439.19;4995812;28;20618;-65
2022/08/30 05:48:50;;;;;;;7.45;5.97;;;;;;;15.82;100.00;101441.66;4992394;28;20046;-63
2022/08/30 05:51:22;;;;;;;7.88;5.63;;;;;;;15.88;100.00;101443.88;5001086;28;20053;-63
2022/08/30 05:53:52;;;;;;;6.35;5.70;;;;;;;15.96;99.54;101441.56;4997902;28;20549;-63
2022/08/30 05:56:21;;;;;;;8.60;6.50;;;;;;;16.01;100.00;101441.22;4992931;28;20058;-63
2022/08/30 05:58:53;;;;;;;8.48;7.05;;;;;;;16.00;100.00;101442.19;4997847;28;20085;-63
2022/08/30 06:01:32;;;;;;;7.63;6.35;;;;;;;16.05;100.00;101446.22;4983357;28;20116;-63
2022/08/30 06:04:01;;;;;;;9.85;6.30;;;;;;;16.11;100.00;101451.09;4995459;28;20461;-64
2022/08/30 06:06:32;;;;;;;7.28;6.13;;;;;;;16.18;100.00;101446.22;5000715;28;20053;-63
2022/08/30 06:08:59;;;;;;;8.27;5.45;;;;;;;16.25;100.00;101449.31;4996437;28;20046;-65
2022/08/30 06:11:29;;;;;;;4.72;4.22;;;;;;;16.31;99.44;101451.56;4997584;28;20504;-65
2022/08/30 06:13:56;;;;;;;9.70;6.60;;;;;;;16.36;98.79;101446.75;4987929;28;20050;-65
2022/08/30 06:16:25;;;;;;;6.90;6.13;;;;;;;16.40;98.49;101448.25;4990339;28;20058;-64
2022/08/30 06:18:55;;;;;;;8.45;6.32;;;;;;;16.43;98.61;101450.66;4991171;28;20145;-63
2022/08/30 06:21:25;;;;;;;6.20;5.60;;;;;;;16.46;98.09;101447.81;4999367;28;20066;-65
2022/08/30 06:23:53;;;;;;;10.15;7.43;;;;;;;16.50;98.83;101448.44;4987892;28;20069;-64
2022/08/30 06:26:20;;;;;;;8.50;6.32;;;;;;;16.55;99.25;101449.81;4989264;28;20507;-64
2022/08/30 06:28:48;;;;;;;9.15;6.50;;;;;;;16.61;99.00;101459.16;4989131;28;20069;-64
2022/08/30 06:31:17;;;;;;;7.55;5.95;;;;;;;16.67;99.32;101451.59;4989042;28;20528;-63
2022/08/30 06:33:45;;;;;;;10.82;7.60;;;;;;;16.71;99.13;101454.91;4988377;28;20101;-64
2022/08/30 06:36:16;;;;;;;9.38;7.95;;;;;;;16.73;99.94;101455.66;4996165;28;20054;-64
2022/08/30 06:38:44;;;;;;;10.43;6.40;;;;;;;16.75;100.00;101463.50;4988324;28;20056;-64
2022/08/30 06:41:17;;;;;;;8.65;6.25;;;;;;;16.79;100.00;101463.19;4990393;28;20062;-64
2022/08/30 06:43:45;;;;;;;10.68;8.68;;;;;;;16.80;100.00;101469.38;4988643;28;20101;-64
2022/08/30 06:46:21;;;;;;;12.57;8.77;;;;;;;16.76;100.00;101468.75;4994961;28;20690;-64
2022/08/30 06:48:48;;;;;;;11.15;9.05;;;;;;;16.78;100.00;101465.97;4990404;28;20073;-64
2022/08/30 06:51:20;;;;;;;12.32;9.88;;;;;;;16.78;100.00;101465.97;4999759;28;20049;-65
2022/08/30 06:53:49;;;;;;;13.93;10.45;;;;;;;16.79;100.00;101472.97;4988968;28;20054;-65
2022/08/30 06:56:17;;;;;;;13.98;9.43;;;;;;;16.79;100.00;101473.81;4997287;28;20053;-64
2022/08/30 06:58:46;;;;;;;12.18;9.80;;;;;;;16.87;100.00;101468.81;4994642;28;20070;-65
2022/08/30 07:01:15;;;;;;;12.95;9.38;;;;;;;16.95;100.00;101473.59;4990525;28;20046;-65
2022/08/30 07:03:43;;;;;;;15.18;9.02;;;;;;;16.97;100.00;101471.66;4982631;28;20069;-64
2022/08/30 07:06:10;;;;;;;36.53;10.50;;;;;;;17.05;100.00;101479.94;4962597;28;20061;-63
2022/08/30 07:08:37;;;;;;;10.93;8.25;;;;;;;17.14;100.00;101483.72;4987042;28;20062;-64
2022/08/30 07:11:06;;;;;;;13.02;9.65;;;;;;;17.20;100.00;101475.28;5015879;23;20052;-84
2022/08/30 07:13:35;;;;;;;12.18;8.70;;;;;;;17.24;100.00;101471.44;4994408;28;20049;-84
2022/08/30 07:16:13;;;;;;;10.43;9.25;;;;;;;17.27;100.00;101473.91;4994204;28;20432;-86
2022/08/30 07:18:50;;;;;;;11.45;9.05;;;;;;;17.33;100.00;101477.91;5003954;28;20045;-83
2022/08/30 07:21:21;;;;;;;9.23;8.27;;;;;;;17.41;100.00;101471.06;5016403;28;20390;-82
2022/08/30 07:23:49;;;;;;;10.32;9.13;;;;;;;17.44;100.00;101476.16;5015906;28;20049;-83
2022/08/30 07:26:31;;;;;;;7.88;7.18;;;;;;;17.52;100.00;101480.94;4986111;28;20101;-84
2022/08/30 07:28:58;;;;;;;7.70;6.90;;;;;;;17.60;100.00;101481.19;4999794;28;20110;-84
2022/08/30 07:31:26;;;;;;;11.57;7.82;;;;;;;17.67;100.00;101487.75;5023691;28;20030;-84
2022/08/30 07:33:53;;;;;;;9.80;8.80;;;;;;;17.75;100.00;101483.72;5006190;28;20049;-84
2022/08/30 07:36:22;;;;;;;10.60;8.48;;;;;;;17.77;100.00;101487.09;5010441;28;20038;-84
2022/08/30 07:38:50;;;;;;;8.40;7.53;;;;;;;17.81;100.00;101488.56;4977793;28;20080;-85
2022/08/30 07:41:24;;;;;;;8.80;7.90;;;;;;;17.86;100.00;101487.25;5019513;28;20025;-84
2022/08/30 07:43:51;;;;;;;7.82;6.75;;;;;;;17.86;100.00;101486.41;5017035;28;20094;-84
2022/08/30 07:46:19;;;;;;;7.38;6.63;;;;;;;17.90;100.00;101494.03;5007311;28;20046;-85
2022/08/30 07:48:47;;;;;;;8.73;7.82;;;;;;;17.94;100.00;101492.84;5016813;28;20041;-83
2022/08/30 07:51:18;;;;;;;7.75;6.90;;;;;;;17.99;100.00;101491.66;5005628;28;20038;-84
2022/08/30 07:53:45;;;;;;;10.20;7.72;;;;;;;18.00;99.92;101502.19;5001767;28;20482;-84
2022/08/30 07:56:14;;;;;;;6.65;5.95;;;;;;;18.02;99.78;101508.25;5032406;28;20042;-84
2022/08/30 07:58:42;;;;;;;6.60;6.00;;;;;;;18.06;99.36;101507.06;5038305;28;20558;-85
2022/08/30 08:01:11;;;;;;;8.63;7.60;;;;;;;18.09;99.07;101506.81;5012029;28;20124;-85
2022/08/30 08:03:40;;;;;;;8.80;6.78;;;;;;;18.10;99.41;101508.53;4997793;28;20289;-84
2022/08/30 08:06:09;;;;;;;8.27;6.70;;;;;;;18.17;99.29;101509.72;5015233;28;20045;-83
2022/08/30 08:08:37;;;;;;;20.52;17.45;;;;;;;18.24;98.77;101510.13;4985711;28;20049;-84
2022/08/30 08:11:07;;;;;;;42.50;33.03;;;;;;;18.33;98.18;101516.56;5006517;28;20041;-83
2022/08/30 08:13:35;;;;;;;23.88;19.92;;;;;;;18.35;98.10;101510.13;4992506;28;20125;-82
2022/08/30 08:16:26;;;;;;;10.47;9.20;;;;;;;18.40;97.82;101505.28;5002113;28;20411;-81
2022/08/30 08:18:53;;;;;;;6.47;5.30;;;;;;;18.52;97.26;101511.50;5002180;28;20787;-82
2022/08/30 08:21:23;;;;;;;5.63;4.20;;;;;;;18.59;96.43;101502.03;5003003;28;20045;-83
2022/08/30 08:23:50;;;;;;;4.72;3.72;;;;;;;18.68;96.02;101503.97;5015359;28;20052;-82
2022/08/30 08:26:19;;;;;;;6.47;4.10;;;;;;;18.81;95.38;101511.03;5040566;28;20092;-83
2022/08/30 08:28:46;;;;;;;4.45;2.90;;;;;;;18.83;94.67;101519.78;5009948;28;20053;-83
2022/08/30 08:31:17;;;;;;;6.07;2.75;;;;;;;18.88;94.32;101509.59;4995793;28;20069;-82
2022/08/30 08:33:46;;;;;;;2.58;2.22;;;;;;;18.95;93.62;101518.78;5029773;28;20057;-83
2022/08/30 08:36:20;;;;;;;4.32;2.20;;;;;;;19.06;93.04;101521.44;5021574;28;20053;-83
2022/08/30 08:38:48;;;;;;;4.60;2.10;;;;;;;19.13;91.75;101522.63;5020356;28;20046;-82
2022/08/30 08:41:42;;;;;;;5.45;1.80;;;;;;;19.20;91.13;101526.50;5030900;28;20045;-84
2022/08/30 08:44:23;;;;;;;2.72;1.70;;;;;;;19.26;90.75;101529.66;5022049;28;20042;-83
2022/08/30 08:46:59;;;;;;;2.78;2.03;;;;;;;19.29;89.56;101538.28;5027023;28;20052;-84
2022/08/30 08:49:29;;;;;;;1.92;1.70;;;;;;;19.38;89.70;101534.00;5016203;28;20043;-82
2022/08/30 08:54:51;;;;;;;2.80;1.45;;;;;;;19.46;88.30;101537.75;5025185;28;20022;-84
2022/08/30 08:57:21;;;;;;;2.35;1.17;;;;;;;19.49;87.99;101531.28;5035184;28;20052;-82
2022/08/30 08:59:53;;;;;;;1.63;1.30;;;;;;;19.54;87.73;101536.25;5016661;28;20058;-83
2022/08/30 09:02:27;;;;;;;1.10;1.00;;;;;;;19.56;87.54;101535.16;5015992;28;20062;-82
2022/08/30 09:05:00;;;;;;;1.58;1.23;;;;;;;19.56;86.81;101534.31;5026974;28;20049;-83
2022/08/30 09:07:40;;;;;;;1.63;1.17;;;;;;;19.53;86.62;101534.56;5003470;28;20508;-84
2022/08/30 09:10:13;;;;;;;1.15;0.85;;;;;;;19.53;86.53;101542.56;5020180;28;20044;-86
2022/08/30 09:12:40;;;;;;;1.35;1.05;;;;;;;19.55;85.95;101541.50;5007604;28;20053;-83
2022/08/30 09:15:23;;;;;;;3.10;1.50;;;;;;;19.51;85.27;101529.34;5022018;28;20396;-86
2022/08/30 09:18:03;;;;;;;2.08;1.70;;;;;;;19.40;85.51;101537.38;5022958;28;20042;-87
2022/08/30 09:20:40;;;;;;;3.45;1.85;;;;;;;19.29;86.12;101538.28;5020469;28;20038;-85
2022/08/30 09:23:27;;;;;;;4.30;2.30;;;;;;;19.16;86.77;101538.41;5028085;28;20038;-84
2022/08/30 09:26:00;;;;;;;3.08;1.63;;;;;;;19.15;87.51;101542.06;4991357;28;20056;-84
2022/08/30 09:29:03;;;;;;;4.32;1.70;;;;;;;19.17;87.51;101541.91;5000328;28;20045;-86
2022/08/30 09:31:50;;;;;;;3.60;2.00;;;;;;;19.23;87.53;101544.13;5032165;28;20038;-85
2022/08/30 09:34:44;;;;;;;3.53;1.85;;;;;;;19.29;87.43;101550.78;5007638;28;20062;-85
2022/08/30 09:37:28;;;;;;;2.75;1.88;;;;;;;19.32;87.36;101543.38;5019879;28;20133;-85
2022/08/30 09:39:59;;;;;;;4.07;1.60;;;;;;;19.32;87.28;101547.84;5024020;28;20033;-85
2022/08/30 09:42:33;;;;;;;1.95;1.40;;;;;;;19.29;86.38;101546.28;5027239;28;20044;-85
2022/08/30 09:45:21;;;;;;;2.50;1.93;;;;;;;19.27;86.54;101548.22;5019253;28;20045;-87
2022/08/30 09:47:57;;;;;;;5.00;1.77;;;;;;;19.29;86.85;101543.59;5019278;28;20057;-87
2022/08/30 09:50:39;;;;;;;1.70;1.33;;;;;;;19.38;86.55;101545.53;5001775;28;20042;-86
2022/08/30 09:53:27;;;;;;;2.70;1.00;;;;;;;19.47;86.81;101542.09;5018169;28;20155;-86
2022/08/30 09:57:27;;;;;;;1.85;0.90;;;;;;;19.62;85.37;101545.34;5018439;28;20037;-86
2022/08/30 10:00:15;;;;;;;3.72;1.08;;;;;;;19.84;85.51;101544.44;5017965;28;20026;-85
2022/08/30 10:02:58;;;;;;;1.27;0.90;;;;;;;20.02;85.01;101541.19;5019890;28;20045;-88
2022/08/30 10:05:37;;;;;;;4.18;1.30;;;;;;;20.16;85.07;101540.88;4993810;28;20053;-64
2022/08/30 10:08:29;;;;;;;1.10;0.95;;;;;;;20.28;84.55;101541.66;4996109;28;20046;-63
2022/08/30 10:11:36;;;;;;;6.53;1.85;;;;;;;20.31;82.58;101546.72;4996465;28;20050;-63
2022/08/30 10:14:32;;;;;;;1.20;1.00;;;;;;;20.28;82.14;101537.16;4985066;28;20125;-61
2022/08/30 10:17:12;;;;;;;2.33;1.20;;;;;;;20.35;82.28;101542.81;4985445;28;20050;-63
2022/08/30 10:20:15;;;;;;;2.30;1.00;;;;;;;20.42;81.86;101544.00;4981836;28;20070;-63
2022/08/30 10:23:09;;;;;;;0.93;0.73;;;;;;;20.47;81.19;101541.78;4933419;29;20056;-64
2022/08/30 10:25:37;;;;;;;1.92;1.33;;;;;;;20.52;81.16;101539.56;4996488;28;20058;-63
2022/08/30 10:28:34;;;;;;;1.92;0.82;;;;;;;20.55;79.92;101542.00;4973194;28;20050;-63
2022/08/30 10:31:05;;;;;;;1.80;0.98;;;;;;;20.65;79.95;101537.53;4994245;28;20046;-63
2022/08/30 10:33:39;;;;;;;2.05;0.80;;;;;;;20.75;79.14;101532.22;5002282;28;20272;-63
2022/08/30 10:36:10;;;;;;;1.55;0.82;;;;;;;20.83;78.26;101531.56;4983819;28;20382;-65
2022/08/30 10:38:39;;;;;;;1.02;0.73;;;;;;;20.96;78.20;101524.16;4973649;28;20050;-65
2022/08/30 10:41:18;;;;;;;1.67;0.82;;;;;;;21.05;76.83;101526.00;4974729;28;20088;-65
2022/08/30 10:44:14;;;;;;;2.88;1.27;;;;;;;21.20;77.67;101521.09;4998337;28;20073;-63
2022/08/30 10:46:57;;;;;;;1.00;0.90;;;;;;;21.30;76.72;101524.66;4985246;28;20415;-63
2022/08/30 10:49:26;;;;;;;2.00;1.08;;;;;;;21.38;76.90;101519.47;4979631;28;20566;-62
2022/08/30 10:51:56;;;;;;;3.45;1.23;;;;;;;21.46;76.55;101522.31;5001609;28;20052;-64
2022/08/30 10:54:47;;;;;;;2.45;1.40;;;;;;;21.55;76.09;101522.47;4990102;28;20562;-63
2022/08/30 10:57:16;;;;;;;3.45;1.45;;;;;;;21.67;75.54;101522.19;4999884;28;20057;-62
2022/08/30 10:59:47;;;;;;;2.20;1.33;;;;;;;21.82;73.96;101525.28;4998562;28;20058;-64
2022/08/30 11:02:16;;;;;;;2.17;1.20;;;;;;;21.97;73.78;101523.00;4959109;28;20045;-65
2022/08/30 11:04:51;;;;;;;1.30;0.80;;;;;;;22.06;72.64;101524.84;4998338;28;20682;-63
2022/08/30 11:07:56;;;;;;;5.30;0.90;;;;;;;22.23;72.48;101520.63;5000169;28;20669;-63
2022/08/30 11:10:48;;;;;;;1.15;0.93;;;;;;;22.36;72.38;101518.47;4999061;28;20037;-64
2022/08/30 11:13:28;;;;;;;1.50;0.90;;;;;;;22.41;71.17;101521.56;4986426;28;20066;-65
2022/08/30 11:16:05;;;;;;;1.50;0.70;;;;;;;22.39;70.59;101522.72;4981529;28;20052;-63
2022/08/30 11:18:42;;;;;;;1.75;0.82;;;;;;;22.41;70.27;101523.41;4992597;28;20137;-66
2022/08/30 11:21:28;;;;;;;2.42;1.00;;;;;;;;;;4973497;28;20100;-64
2022/08/30 11:24:00;;;;;;;1.23;1.10;;;;;;;22.36;69.45;101528.34;4995413;28;20061;-62
2022/08/30 11:26:47;;;;;;;1.60;1.00;;;;;;;22.42;70.69;101523.22;4997612;28;20046;-64
2022/08/30 11:29:32;;;;;;;2.28;0.90;;;;;;;22.44;69.07;101523.94;4997128;28;20057;-63
2022/08/30 11:32:23;;;;;;;1.25;1.00;;;;;;;22.46;68.83;101513.06;4992628;28;20471;-65
2022/08/30 11:34:56;;;;;;;1.15;0.90;;;;;;;22.39;67.67;101509.28;4997599;28;20057;-64
2022/08/30 11:37:42;;;;;;;2.28;0.98;;;;;;;22.40;67.22;101502.94;4995067;28;20125;-64
2022/08/30 11:40:19;;;;;;;4.75;1.35;;;;;;;22.29;63.89;101505.75;4992816;28;20050;-63
2022/08/30 11:42:48;;;;;;;2.00;1.10;;;;;;;22.20;64.61;101497.63;4999427;28;20646;-62
2022/08/30 11:45:26;;;;;;;2.05;1.33;;;;;;;22.34;66.57;101493.63;4977454;28;20050;-65
2022/08/30 11:48:04;;;;;;;4.10;1.00;;;;;;;22.51;67.51;101489.31;4998643;28;20527;-63